sensor_id;sensor_type;location;lat;lon;timestamp;temperature;humidity
24035;DHT22;12242;50.952;4.678;2022-08-01T00:00:08;22.90;99.90
24035;DHT22;12242;50.952;4.678;2022-08-01T00:02:39;22.80;99.90
24035;DHT22;12242;50.952;4.678;2022-08-01T00:05:10;22.90;99.90
24035;DHT22;12242;50.952;4.678;2022-08-01T00:07:38;22.90;99.90
24035;DHT22;12242;50.952;4.678;2022-08-01T00:10:09;22.90;99.90
24035;DHT22;12242;50.952;4.678;2022-08-01T00:12:37;22.90;99.90
24035;DHT22;12242;50.952;4.678;2022-08-01T00:15:09;22.80;99.90
24035;DHT22;12242;50.952;4.678;2022-08-01T00:17:41;22.80;99.90
24035;DHT22;12242;50.952;4.678;2022-08-01T00:20:14;22.70;99.90
24035;DHT22;12242;50.952;4.678;2022-08-01T00:22:46;22.60;99.90
24035;DHT22;12242;50.952;4.678;2022-08-01T00:25:13;22.50;99.90
24035;DHT22;12242;50.952;4.678;2022-08-01T00:27:43;22.40;99.90
24035;DHT22;12242;50.952;4.678;2022-08-01T00:30:10;22.40;99.90
24035;DHT22;12242;50.952;4.678;2022-08-01T00:32:44;22.40;99.90
24035;DHT22;12242;50.952;4.678;2022-08-01T00:35:12;22.40;99.90
24035;DHT22;12242;50.952;4.678;2022-08-01T00:37:40;22.40;99.90
24035;DHT22;12242;50.952;4.678;2022-08-01T00:40:07;22.50;99.90
24035;DHT22;12242;50.952;4.678;2022-08-01T00:42:38;22.50;99.90
24035;DHT22;12242;50.952;4.678;2022-08-01T00:45:12;22.60;99.90
24035;DHT22;12242;50.952;4.678;2022-08-01T00:47:40;22.50;99.90
24035;DHT22;12242;50.952;4.678;2022-08-01T00:50:11;22.50;99.90
24035;DHT22;12242;50.952;4.678;2022-08-01T00:52:41;22.50;99.90
24035;DHT22;12242;50.952;4.678;2022-08-01T00:55:18;22.50;99.90
24035;DHT22;12242;50.952;4.678;2022-08-01T00:57:47;22.40;99.90
24035;DHT22;12242;50.952;4.678;2022-08-01T01:00:33;22.50;99.90
24035;DHT22;12242;50.952;4.678;2022-08-01T01:03:21;22.50;99.90
24035;DHT22;12242;50.952;4.678;2022-08-01T01:09:17;22.50;99.90
24035;DHT22;12242;50.952;4.678;2022-08-01T01:14:53;22.50;99.90
24035;DHT22;12242;50.952;4.678;2022-08-01T01:17:28;22.50;99.90
24035;DHT22;12242;50.952;4.678;2022-08-01T01:20:19;22.40;99.90
24035;DHT22;12242;50.952;4.678;2022-08-01T01:22:55;22.40;99.90
24035;DHT22;12242;50.952;4.678;2022-08-01T01:30:41;22.50;99.90
24035;DHT22;12242;50.952;4.678;2022-08-01T01:33:12;22.50;99.90
24035;DHT22;12242;50.952;4.678;2022-08-01T01:35:51;22.60;99.90
24035;DHT22;12242;50.952;4.678;2022-08-01T01:38:29;22.60;99.90
24035;DHT22;12242;50.952;4.678;2022-08-01T01:41:00;22.60;99.90
24035;DHT22;12242;50.952;4.678;2022-08-01T01:43:32;22.60;99.90
24035;DHT22;12242;50.952;4.678;2022-08-01T01:46:00;22.50;99.90
24035;DHT22;12242;50.952;4.678;2022-08-01T01:48:33;22.50;99.90
24035;DHT22;12242;50.952;4.678;2022-08-01T01:51:03;22.50;99.90
24035;DHT22;12242;50.952;4.678;2022-08-01T01:53:33;22.40;99.90
24035;DHT22;12242;50.952;4.678;2022-08-01T01:56:02;22.40;99.90
24035;DHT22;12242;50.952;4.678;2022-08-01T01:58:33;22.40;99.90
24035;DHT22;12242;50.952;4.678;2022-08-01T02:01:02;22.40;99.90
24035;DHT22;12242;50.952;4.678;2022-08-01T02:03:42;22.40;99.90
24035;DHT22;12242;50.952;4.678;2022-08-01T02:06:12;22.40;99.90
24035;DHT22;12242;50.952;4.678;2022-08-01T02:08:42;22.40;99.90
24035;DHT22;12242;50.952;4.678;2022-08-01T02:11:12;22.50;99.90
24035;DHT22;12242;50.952;4.678;2022-08-01T02:14:00;22.50;99.90
24035;DHT22;12242;50.952;4.678;2022-08-01T02:16:31;22.40;99.90
24035;DHT22;12242;50.952;4.678;2022-08-01T02:19:03;22.40;99.90
24035;DHT22;12242;50.952;4.678;2022-08-01T02:21:37;22.50;99.90
24035;DHT22;12242;50.952;4.678;2022-08-01T02:26:58;22.40;99.90
24035;DHT22;12242;50.952;4.678;2022-08-01T02:29:34;22.50;99.90
24035;DHT22;12242;50.952;4.678;2022-08-01T02:32:05;22.50;99.90
24035;DHT22;12242;50.952;4.678;2022-08-01T02:34:35;22.50;99.90
24035;DHT22;12242;50.952;4.678;2022-08-01T02:37:05;22.60;99.90
24035;DHT22;12242;50.952;4.678;2022-08-01T02:39:36;22.60;99.90
24035;DHT22;12242;50.952;4.678;2022-08-01T02:42:06;22.60;99.90
24035;DHT22;12242;50.952;4.678;2022-08-01T02:44:38;22.50;99.90
24035;DHT22;12242;50.952;4.678;2022-08-01T02:47:07;22.50;99.90
24035;DHT22;12242;50.952;4.678;2022-08-01T02:49:41;22.50;99.90
24035;DHT22;12242;50.952;4.678;2022-08-01T02:52:15;22.40;99.90
24035;DHT22;12242;50.952;4.678;2022-08-01T02:54:48;22.40;99.90
24035;DHT22;12242;50.952;4.678;2022-08-01T02:57:17;22.40;99.90
24035;DHT22;12242;50.952;4.678;2022-08-01T02:59:47;22.40;99.90
24035;DHT22;12242;50.952;4.678;2022-08-01T03:02:25;22.30;99.90
24035;DHT22;12242;50.952;4.678;2022-08-01T03:04:58;22.30;99.90
24035;DHT22;12242;50.952;4.678;2022-08-01T03:07:28;22.30;99.90
24035;DHT22;12242;50.952;4.678;2022-08-01T03:10:05;22.30;99.90
24035;DHT22;12242;50.952;4.678;2022-08-01T03:12:33;22.20;99.90
24035;DHT22;12242;50.952;4.678;2022-08-01T03:15:05;22.20;99.90
24035;DHT22;12242;50.952;4.678;2022-08-01T03:17:37;22.10;99.90
24035;DHT22;12242;50.952;4.678;2022-08-01T03:20:10;22.00;99.90
24035;DHT22;12242;50.952;4.678;2022-08-01T03:22:39;22.00;99.90
24035;DHT22;12242;50.952;4.678;2022-08-01T03:25:08;22.10;99.90
24035;DHT22;12242;50.952;4.678;2022-08-01T03:27:39;22.00;99.90
24035;DHT22;12242;50.952;4.678;2022-08-01T03:30:07;21.90;99.90
24035;DHT22;12242;50.952;4.678;2022-08-01T03:32:35;21.90;99.90
24035;DHT22;12242;50.952;4.678;2022-08-01T03:35:03;21.90;99.90
24035;DHT22;12242;50.952;4.678;2022-08-01T03:37:38;22.00;99.90
24035;DHT22;12242;50.952;4.678;2022-08-01T03:40:45;22.00;99.90
24035;DHT22;12242;50.952;4.678;2022-08-01T03:43:36;22.00;99.90
24035;DHT22;12242;50.952;4.678;2022-08-01T03:46:07;22.10;99.90
24035;DHT22;12242;50.952;4.678;2022-08-01T03:48:39;22.10;99.90
24035;DHT22;12242;50.952;4.678;2022-08-01T03:51:07;22.10;99.90
24035;DHT22;12242;50.952;4.678;2022-08-01T03:53:37;22.00;99.90
24035;DHT22;12242;50.952;4.678;2022-08-01T03:56:09;22.10;99.90
24035;DHT22;12242;50.952;4.678;2022-08-01T03:58:39;22.10;99.90
24035;DHT22;12242;50.952;4.678;2022-08-01T04:01:09;22.10;99.90
24035;DHT22;12242;50.952;4.678;2022-08-01T04:03:43;22.10;99.90
24035;DHT22;12242;50.952;4.678;2022-08-01T04:06:10;22.20;99.90
24035;DHT22;12242;50.952;4.678;2022-08-01T04:08:43;22.30;99.90
24035;DHT22;12242;50.952;4.678;2022-08-01T04:11:28;22.20;99.90
24035;DHT22;12242;50.952;4.678;2022-08-01T04:13:58;22.20;99.90
24035;DHT22;12242;50.952;4.678;2022-08-01T04:16:26;22.30;99.90
24035;DHT22;12242;50.952;4.678;2022-08-01T04:18:58;22.20;99.90
24035;DHT22;12242;50.952;4.678;2022-08-01T04:21:27;22.20;99.90
24035;DHT22;12242;50.952;4.678;2022-08-01T04:24:00;22.20;99.90
24035;DHT22;12242;50.952;4.678;2022-08-01T04:26:32;22.20;99.90
24035;DHT22;12242;50.952;4.678;2022-08-01T04:29:02;22.20;99.90
24035;DHT22;12242;50.952;4.678;2022-08-01T04:31:33;22.30;99.90
24035;DHT22;12242;50.952;4.678;2022-08-01T04:34:03;22.30;99.90
24035;DHT22;12242;50.952;4.678;2022-08-01T04:36:34;22.30;99.90
24035;DHT22;12242;50.952;4.678;2022-08-01T04:39:05;22.30;99.90
24035;DHT22;12242;50.952;4.678;2022-08-01T04:41:36;22.40;99.90
24035;DHT22;12242;50.952;4.678;2022-08-01T04:44:04;22.50;99.90
24035;DHT22;12242;50.952;4.678;2022-08-01T04:46:34;22.40;99.90
24035;DHT22;12242;50.952;4.678;2022-08-01T04:49:08;22.40;99.90
24035;DHT22;12242;50.952;4.678;2022-08-01T04:51:49;22.50;99.90
24035;DHT22;12242;50.952;4.678;2022-08-01T04:54:22;22.40;99.90
24035;DHT22;12242;50.952;4.678;2022-08-01T04:56:49;22.50;99.90
24035;DHT22;12242;50.952;4.678;2022-08-01T04:59:20;22.60;99.90
24035;DHT22;12242;50.952;4.678;2022-08-01T05:02:07;22.60;99.90
24035;DHT22;12242;50.952;4.678;2022-08-01T05:04:36;22.70;99.90
24035;DHT22;12242;50.952;4.678;2022-08-01T05:07:06;22.70;99.90
24035;DHT22;12242;50.952;4.678;2022-08-01T05:09:36;22.80;99.90
24035;DHT22;12242;50.952;4.678;2022-08-01T05:12:05;22.80;99.90
24035;DHT22;12242;50.952;4.678;2022-08-01T05:14:33;22.80;99.90
24035;DHT22;12242;50.952;4.678;2022-08-01T05:17:05;22.60;99.90
24035;DHT22;12242;50.952;4.678;2022-08-01T05:19:34;22.70;99.90
24035;DHT22;12242;50.952;4.678;2022-08-01T05:22:03;22.70;99.90
24035;DHT22;12242;50.952;4.678;2022-08-01T05:24:36;22.70;99.90
24035;DHT22;12242;50.952;4.678;2022-08-01T05:27:07;22.90;99.90
24035;DHT22;12242;50.952;4.678;2022-08-01T05:29:37;22.80;99.90
24035;DHT22;12242;50.952;4.678;2022-08-01T05:32:13;22.80;99.90
24035;DHT22;12242;50.952;4.678;2022-08-01T05:34:40;22.70;99.90
24035;DHT22;12242;50.952;4.678;2022-08-01T05:37:08;22.60;99.90
24035;DHT22;12242;50.952;4.678;2022-08-01T05:39:35;22.60;99.90
24035;DHT22;12242;50.952;4.678;2022-08-01T05:42:03;22.70;99.90
24035;DHT22;12242;50.952;4.678;2022-08-01T05:44:31;22.60;99.90
24035;DHT22;12242;50.952;4.678;2022-08-01T05:46:59;22.70;99.90
24035;DHT22;12242;50.952;4.678;2022-08-01T05:49:26;22.90;99.90
24035;DHT22;12242;50.952;4.678;2022-08-01T05:51:58;22.80;99.90
24035;DHT22;12242;50.952;4.678;2022-08-01T05:54:25;22.90;99.90
24035;DHT22;12242;50.952;4.678;2022-08-01T05:56:53;23.00;99.90
24035;DHT22;12242;50.952;4.678;2022-08-01T05:59:22;23.10;99.90
24035;DHT22;12242;50.952;4.678;2022-08-01T06:01:52;23.20;99.90
24035;DHT22;12242;50.952;4.678;2022-08-01T06:04:19;23.20;99.90
24035;DHT22;12242;50.952;4.678;2022-08-01T06:06:54;23.20;99.90
24035;DHT22;12242;50.952;4.678;2022-08-01T06:09:22;23.10;99.90
24035;DHT22;12242;50.952;4.678;2022-08-01T06:11:49;23.00;99.90
24035;DHT22;12242;50.952;4.678;2022-08-01T06:14:17;23.00;99.90
24035;DHT22;12242;50.952;4.678;2022-08-01T06:16:47;22.90;99.90
24035;DHT22;12242;50.952;4.678;2022-08-01T06:19:14;22.90;99.90
24035;DHT22;12242;50.952;4.678;2022-08-01T06:21:42;22.90;99.90
24035;DHT22;12242;50.952;4.678;2022-08-01T06:24:09;22.90;99.90
24035;DHT22;12242;50.952;4.678;2022-08-01T06:26:37;22.90;99.90
24035;DHT22;12242;50.952;4.678;2022-08-01T06:29:04;23.00;99.90
24035;DHT22;12242;50.952;4.678;2022-08-01T06:31:32;23.00;99.90
24035;DHT22;12242;50.952;4.678;2022-08-01T06:34:00;23.20;99.90
24035;DHT22;12242;50.952;4.678;2022-08-01T06:36:30;23.30;99.90
24035;DHT22;12242;50.952;4.678;2022-08-01T06:38:58;23.30;99.90
24035;DHT22;12242;50.952;4.678;2022-08-01T06:41:27;23.30;99.90
24035;DHT22;12242;50.952;4.678;2022-08-01T06:43:55;23.30;99.90
24035;DHT22;12242;50.952;4.678;2022-08-01T06:46:22;23.30;99.90
24035;DHT22;12242;50.952;4.678;2022-08-01T06:48:56;23.50;99.90
24035;DHT22;12242;50.952;4.678;2022-08-01T06:51:23;23.50;99.90
24035;DHT22;12242;50.952;4.678;2022-08-01T06:53:53;23.50;99.90
24035;DHT22;12242;50.952;4.678;2022-08-01T06:56:21;23.50;99.90
24035;DHT22;12242;50.952;4.678;2022-08-01T06:58:49;23.60;99.90
24035;DHT22;12242;50.952;4.678;2022-08-01T07:01:17;23.60;99.90
24035;DHT22;12242;50.952;4.678;2022-08-01T07:03:47;23.70;99.90
24035;DHT22;12242;50.952;4.678;2022-08-01T07:06:25;23.80;99.90
24035;DHT22;12242;50.952;4.678;2022-08-01T07:08:53;23.80;99.90
24035;DHT22;12242;50.952;4.678;2022-08-01T07:11:23;23.80;99.90
24035;DHT22;12242;50.952;4.678;2022-08-01T07:13:51;23.80;99.90
24035;DHT22;12242;50.952;4.678;2022-08-01T07:16:19;23.80;99.90
24035;DHT22;12242;50.952;4.678;2022-08-01T07:18:46;23.80;99.90
24035;DHT22;12242;50.952;4.678;2022-08-01T07:21:14;23.80;99.90
24035;DHT22;12242;50.952;4.678;2022-08-01T07:24:05;23.90;99.90
24035;DHT22;12242;50.952;4.678;2022-08-01T07:26:44;24.10;99.90
24035;DHT22;12242;50.952;4.678;2022-08-01T07:29:23;24.20;99.90
24035;DHT22;12242;50.952;4.678;2022-08-01T07:31:52;24.20;99.90
24035;DHT22;12242;50.952;4.678;2022-08-01T07:34:23;24.20;99.90
24035;DHT22;12242;50.952;4.678;2022-08-01T07:36:52;24.30;99.90
24035;DHT22;12242;50.952;4.678;2022-08-01T07:39:20;24.00;99.90
24035;DHT22;12242;50.952;4.678;2022-08-01T07:41:50;23.90;99.90
24035;DHT22;12242;50.952;4.678;2022-08-01T07:44:33;23.40;99.90
24035;DHT22;12242;50.952;4.678;2022-08-01T07:47:03;23.50;99.90
24035;DHT22;12242;50.952;4.678;2022-08-01T07:49:30;24.00;99.90
24035;DHT22;12242;50.952;4.678;2022-08-01T07:52:08;24.50;99.90
24035;DHT22;12242;50.952;4.678;2022-08-01T07:54:38;25.00;99.90
24035;DHT22;12242;50.952;4.678;2022-08-01T07:57:05;25.60;99.90
24035;DHT22;12242;50.952;4.678;2022-08-01T07:59:33;25.90;99.90
24035;DHT22;12242;50.952;4.678;2022-08-01T08:02:01;26.10;99.90
24035;DHT22;12242;50.952;4.678;2022-08-01T08:04:31;26.70;99.90
24035;DHT22;12242;50.952;4.678;2022-08-01T08:07:02;27.20;99.90
24035;DHT22;12242;50.952;4.678;2022-08-01T08:09:30;27.20;99.90
24035;DHT22;12242;50.952;4.678;2022-08-01T08:12:04;27.30;99.90
24035;DHT22;12242;50.952;4.678;2022-08-01T08:14:32;27.70;99.90
24035;DHT22;12242;50.952;4.678;2022-08-01T08:17:02;27.80;99.90
24035;DHT22;12242;50.952;4.678;2022-08-01T08:19:30;27.80;99.90
24035;DHT22;12242;50.952;4.678;2022-08-01T08:22:06;27.70;98.90
24035;DHT22;12242;50.952;4.678;2022-08-01T08:24:37;27.70;99.30
24035;DHT22;12242;50.952;4.678;2022-08-01T08:27:13;27.50;98.80
24035;DHT22;12242;50.952;4.678;2022-08-01T08:29:41;27.20;98.40
24035;DHT22;12242;50.952;4.678;2022-08-01T08:32:08;27.00;98.20
24035;DHT22;12242;50.952;4.678;2022-08-01T08:34:42;26.80;99.50
24035;DHT22;12242;50.952;4.678;2022-08-01T08:37:13;26.80;99.40
24035;DHT22;12242;50.952;4.678;2022-08-01T08:39:43;26.40;99.90
24035;DHT22;12242;50.952;4.678;2022-08-01T08:42:11;26.10;99.90
24035;DHT22;12242;50.952;4.678;2022-08-01T08:44:43;25.70;99.90
24035;DHT22;12242;50.952;4.678;2022-08-01T08:47:15;25.60;99.90
24035;DHT22;12242;50.952;4.678;2022-08-01T08:49:47;25.90;99.90
24035;DHT22;12242;50.952;4.678;2022-08-01T08:52:18;26.70;99.90
24035;DHT22;12242;50.952;4.678;2022-08-01T08:54:50;26.80;99.70
24035;DHT22;12242;50.952;4.678;2022-08-01T08:57:20;26.90;99.10
24035;DHT22;12242;50.952;4.678;2022-08-01T08:59:48;27.00;99.90
24035;DHT22;12242;50.952;4.678;2022-08-01T09:02:19;27.00;99.80
24035;DHT22;12242;50.952;4.678;2022-08-01T09:04:49;26.70;98.70
24035;DHT22;12242;50.952;4.678;2022-08-01T09:07:17;26.80;99.90
24035;DHT22;12242;50.952;4.678;2022-08-01T09:09:45;27.50;99.50
24035;DHT22;12242;50.952;4.678;2022-08-01T09:12:19;28.20;96.90
24035;DHT22;12242;50.952;4.678;2022-08-01T09:14:48;29.10;96.90
24035;DHT22;12242;50.952;4.678;2022-08-01T09:17:17;29.50;94.70
24035;DHT22;12242;50.952;4.678;2022-08-01T09:19:47;29.30;93.60
24035;DHT22;12242;50.952;4.678;2022-08-01T09:22:22;29.00;93.60
24035;DHT22;12242;50.952;4.678;2022-08-01T09:25:03;28.60;92.40
24035;DHT22;12242;50.952;4.678;2022-08-01T09:27:31;28.30;93.50
24035;DHT22;12242;50.952;4.678;2022-08-01T09:30:18;27.90;93.40
24035;DHT22;12242;50.952;4.678;2022-08-01T09:33:03;28.20;94.90
24035;DHT22;12242;50.952;4.678;2022-08-01T09:35:55;28.80;90.20
24035;DHT22;12242;50.952;4.678;2022-08-01T09:38:25;29.50;91.20
24035;DHT22;12242;50.952;4.678;2022-08-01T09:40:58;29.30;91.20
24035;DHT22;12242;50.952;4.678;2022-08-01T09:43:31;29.20;91.40
24035;DHT22;12242;50.952;4.678;2022-08-01T09:46:02;28.90;91.90
24035;DHT22;12242;50.952;4.678;2022-08-01T09:48:33;28.60;92.60
24035;DHT22;12242;50.952;4.678;2022-08-01T09:51:01;28.50;92.20
24035;DHT22;12242;50.952;4.678;2022-08-01T09:53:46;28.90;93.10
24035;DHT22;12242;50.952;4.678;2022-08-01T09:56:20;29.70;93.00
24035;DHT22;12242;50.952;4.678;2022-08-01T09:58:58;30.50;92.10
24035;DHT22;12242;50.952;4.678;2022-08-01T10:01:47;31.30;91.10
24035;DHT22;12242;50.952;4.678;2022-08-01T10:04:20;30.60;87.40
24035;DHT22;12242;50.952;4.678;2022-08-01T10:06:48;30.50;88.50
24035;DHT22;12242;50.952;4.678;2022-08-01T10:09:32;30.20;87.60
24035;DHT22;12242;50.952;4.678;2022-08-01T10:12:08;30.40;88.40
24035;DHT22;12242;50.952;4.678;2022-08-01T10:14:48;29.90;87.10
24035;DHT22;12242;50.952;4.678;2022-08-01T10:17:18;29.80;89.50
24035;DHT22;12242;50.952;4.678;2022-08-01T10:19:47;29.70;89.60
24035;DHT22;12242;50.952;4.678;2022-08-01T10:22:18;29.70;90.50
24035;DHT22;12242;50.952;4.678;2022-08-01T10:24:48;30.10;90.90
24035;DHT22;12242;50.952;4.678;2022-08-01T10:27:17;31.00;90.10
24035;DHT22;12242;50.952;4.678;2022-08-01T10:30:05;31.40;86.00
24035;DHT22;12242;50.952;4.678;2022-08-01T10:32:50;32.00;84.80
24035;DHT22;12242;50.952;4.678;2022-08-01T10:35:21;32.50;80.70
24035;DHT22;12242;50.952;4.678;2022-08-01T10:38:11;32.50;79.70
24035;DHT22;12242;50.952;4.678;2022-08-01T10:40:43;32.00;80.40
24035;DHT22;12242;50.952;4.678;2022-08-01T10:43:14;31.40;81.30
24035;DHT22;12242;50.952;4.678;2022-08-01T10:45:49;30.70;82.40
24035;DHT22;12242;50.952;4.678;2022-08-01T10:48:56;30.10;83.90
24035;DHT22;12242;50.952;4.678;2022-08-01T10:51:27;30.00;84.40
24035;DHT22;12242;50.952;4.678;2022-08-01T10:54:15;30.50;86.00
24035;DHT22;12242;50.952;4.678;2022-08-01T10:56:48;31.10;83.80
24035;DHT22;12242;50.952;4.678;2022-08-01T10:59:28;31.40;82.30
24035;DHT22;12242;50.952;4.678;2022-08-01T11:02:32;31.70;81.90
24035;DHT22;12242;50.952;4.678;2022-08-01T11:05:20;32.10;81.10
24035;DHT22;12242;50.952;4.678;2022-08-01T11:07:54;32.40;79.60
24035;DHT22;12242;50.952;4.678;2022-08-01T11:10:27;32.50;79.30
24035;DHT22;12242;50.952;4.678;2022-08-01T11:12:58;32.70;80.40
24035;DHT22;12242;50.952;4.678;2022-08-01T11:15:32;32.60;78.40
24035;DHT22;12242;50.952;4.678;2022-08-01T11:18:03;32.30;76.60
24035;DHT22;12242;50.952;4.678;2022-08-01T11:20:33;32.10;77.00
24035;DHT22;12242;50.952;4.678;2022-08-01T11:28:33;32.20;78.80
24035;DHT22;12242;50.952;4.678;2022-08-01T11:39:11;31.50;76.60
24035;DHT22;12242;50.952;4.678;2022-08-01T11:41:41;31.50;80.40
24035;DHT22;12242;50.952;4.678;2022-08-01T11:44:26;31.50;77.60
24035;DHT22;12242;50.952;4.678;2022-08-01T11:47:04;31.50;77.30
24035;DHT22;12242;50.952;4.678;2022-08-01T11:52:23;30.80;79.10
24035;DHT22;12242;50.952;4.678;2022-08-01T11:55:04;31.10;79.90
24035;DHT22;12242;50.952;4.678;2022-08-01T11:57:37;30.90;81.10
24035;DHT22;12242;50.952;4.678;2022-08-01T12:00:15;31.20;77.60
24035;DHT22;12242;50.952;4.678;2022-08-01T12:03:05;31.40;76.00
24035;DHT22;12242;50.952;4.678;2022-08-01T12:05:34;31.40;74.60
24035;DHT22;12242;50.952;4.678;2022-08-01T12:08:09;31.70;75.50
24035;DHT22;12242;50.952;4.678;2022-08-01T12:10:36;31.90;74.70
24035;DHT22;12242;50.952;4.678;2022-08-01T12:13:16;31.60;74.10
24035;DHT22;12242;50.952;4.678;2022-08-01T12:15:48;31.50;74.70
24035;DHT22;12242;50.952;4.678;2022-08-01T12:18:26;31.50;77.60
24035;DHT22;12242;50.952;4.678;2022-08-01T12:21:02;31.90;73.80
24035;DHT22;12242;50.952;4.678;2022-08-01T12:23:33;31.90;74.90
24035;DHT22;12242;50.952;4.678;2022-08-01T12:26:01;32.20;75.50
24035;DHT22;12242;50.952;4.678;2022-08-01T12:28:39;32.50;73.40
24035;DHT22;12242;50.952;4.678;2022-08-01T12:31:07;32.70;72.50
24035;DHT22;12242;50.952;4.678;2022-08-01T12:33:35;32.80;68.50
24035;DHT22;12242;50.952;4.678;2022-08-01T12:36:02;33.10;73.60
24035;DHT22;12242;50.952;4.678;2022-08-01T12:38:30;33.10;70.90
24035;DHT22;12242;50.952;4.678;2022-08-01T12:41:02;32.80;68.00
24035;DHT22;12242;50.952;4.678;2022-08-01T12:43:31;32.40;69.80
24035;DHT22;12242;50.952;4.678;2022-08-01T12:46:00;32.30;70.30
24035;DHT22;12242;50.952;4.678;2022-08-01T12:48:30;32.40;70.80
24035;DHT22;12242;50.952;4.678;2022-08-01T12:51:02;32.00;70.00
24035;DHT22;12242;50.952;4.678;2022-08-01T12:53:34;31.80;70.10
24035;DHT22;12242;50.952;4.678;2022-08-01T12:56:08;31.70;71.20
24035;DHT22;12242;50.952;4.678;2022-08-01T12:58:38;31.80;68.50
24035;DHT22;12242;50.952;4.678;2022-08-01T13:01:10;31.60;67.60
24035;DHT22;12242;50.952;4.678;2022-08-01T13:03:39;31.70;69.50
24035;DHT22;12242;50.952;4.678;2022-08-01T13:06:11;31.50;68.20
24035;DHT22;12242;50.952;4.678;2022-08-01T13:08:39;31.60;68.30
24035;DHT22;12242;50.952;4.678;2022-08-01T13:11:12;31.50;65.80
24035;DHT22;12242;50.952;4.678;2022-08-01T13:13:50;31.50;67.50
24035;DHT22;12242;50.952;4.678;2022-08-01T13:16:25;31.40;63.50
24035;DHT22;12242;50.952;4.678;2022-08-01T13:19:15;31.20;67.80
24035;DHT22;12242;50.952;4.678;2022-08-01T13:21:56;31.60;68.20
24035;DHT22;12242;50.952;4.678;2022-08-01T13:24:27;31.80;68.70
24035;DHT22;12242;50.952;4.678;2022-08-01T13:27:00;31.90;70.70
24035;DHT22;12242;50.952;4.678;2022-08-01T13:29:34;32.00;71.70
24035;DHT22;12242;50.952;4.678;2022-08-01T13:32:19;32.10;68.90
24035;DHT22;12242;50.952;4.678;2022-08-01T13:35:08;31.80;67.00
24035;DHT22;12242;50.952;4.678;2022-08-01T13:37:37;31.30;65.70
24035;DHT22;12242;50.952;4.678;2022-08-01T13:40:08;30.90;68.20
24035;DHT22;12242;50.952;4.678;2022-08-01T13:42:38;31.00;68.90
24035;DHT22;12242;50.952;4.678;2022-08-01T13:45:06;31.10;65.20
24035;DHT22;12242;50.952;4.678;2022-08-01T13:47:44;31.40;64.80
24035;DHT22;12242;50.952;4.678;2022-08-01T13:50:31;31.60;65.00
24035;DHT22;12242;50.952;4.678;2022-08-01T13:52:59;31.60;64.80
24035;DHT22;12242;50.952;4.678;2022-08-01T13:55:28;31.50;66.70
24035;DHT22;12242;50.952;4.678;2022-08-01T13:58:00;31.60;64.90
24035;DHT22;12242;50.952;4.678;2022-08-01T14:00:28;31.70;64.70
24035;DHT22;12242;50.952;4.678;2022-08-01T14:02:55;31.80;65.40
24035;DHT22;12242;50.952;4.678;2022-08-01T14:05:22;31.80;67.60
24035;DHT22;12242;50.952;4.678;2022-08-01T14:07:50;32.00;65.70
24035;DHT22;12242;50.952;4.678;2022-08-01T14:10:25;32.10;63.90
24035;DHT22;12242;50.952;4.678;2022-08-01T14:12:52;32.00;64.70
24035;DHT22;12242;50.952;4.678;2022-08-01T14:15:25;32.10;64.90
24035;DHT22;12242;50.952;4.678;2022-08-01T14:18:06;32.00;63.50
24035;DHT22;12242;50.952;4.678;2022-08-01T14:20:36;32.10;65.60
24035;DHT22;12242;50.952;4.678;2022-08-01T14:23:10;31.70;63.10
24035;DHT22;12242;50.952;4.678;2022-08-01T14:25:40;31.10;62.40
24035;DHT22;12242;50.952;4.678;2022-08-01T14:28:28;30.90;66.20
24035;DHT22;12242;50.952;4.678;2022-08-01T14:30:59;30.90;66.60
24035;DHT22;12242;50.952;4.678;2022-08-01T14:33:27;30.90;67.40
24035;DHT22;12242;50.952;4.678;2022-08-01T14:36:00;30.60;65.80
24035;DHT22;12242;50.952;4.678;2022-08-01T14:38:48;30.40;67.80
24035;DHT22;12242;50.952;4.678;2022-08-01T14:41:16;29.90;67.00
24035;DHT22;12242;50.952;4.678;2022-08-01T14:43:43;29.70;68.70
24035;DHT22;12242;50.952;4.678;2022-08-01T14:46:14;29.90;69.80
24035;DHT22;12242;50.952;4.678;2022-08-01T14:48:44;30.10;70.00
24035;DHT22;12242;50.952;4.678;2022-08-01T14:51:12;30.00;70.30
24035;DHT22;12242;50.952;4.678;2022-08-01T14:53:39;30.20;67.50
24035;DHT22;12242;50.952;4.678;2022-08-01T14:56:14;30.30;66.60
24035;DHT22;12242;50.952;4.678;2022-08-01T14:58:42;30.30;67.60
24035;DHT22;12242;50.952;4.678;2022-08-01T15:01:12;30.00;66.70
24035;DHT22;12242;50.952;4.678;2022-08-01T15:03:40;29.80;66.40
24035;DHT22;12242;50.952;4.678;2022-08-01T15:06:07;29.50;68.80
24035;DHT22;12242;50.952;4.678;2022-08-01T15:08:36;29.60;68.10
24035;DHT22;12242;50.952;4.678;2022-08-01T15:11:04;29.70;70.10
24035;DHT22;12242;50.952;4.678;2022-08-01T15:13:31;29.80;68.60
24035;DHT22;12242;50.952;4.678;2022-08-01T15:15:59;29.90;67.20
24035;DHT22;12242;50.952;4.678;2022-08-01T15:18:27;29.90;67.00
24035;DHT22;12242;50.952;4.678;2022-08-01T15:21:00;29.80;66.40
24035;DHT22;12242;50.952;4.678;2022-08-01T15:23:27;29.70;65.90
24035;DHT22;12242;50.952;4.678;2022-08-01T15:25:54;29.60;64.90
24035;DHT22;12242;50.952;4.678;2022-08-01T15:28:24;29.50;67.00
24035;DHT22;12242;50.952;4.678;2022-08-01T15:30:52;29.50;66.60
24035;DHT22;12242;50.952;4.678;2022-08-01T15:33:19;29.50;66.20
24035;DHT22;12242;50.952;4.678;2022-08-01T15:35:48;29.30;65.60
24035;DHT22;12242;50.952;4.678;2022-08-01T15:38:19;29.20;66.80
24035;DHT22;12242;50.952;4.678;2022-08-01T15:40:48;29.20;67.70
24035;DHT22;12242;50.952;4.678;2022-08-01T15:43:21;29.10;66.70
24035;DHT22;12242;50.952;4.678;2022-08-01T15:45:48;29.00;67.20
24035;DHT22;12242;50.952;4.678;2022-08-01T15:48:16;29.00;67.80
24035;DHT22;12242;50.952;4.678;2022-08-01T15:50:47;28.90;65.90
24035;DHT22;12242;50.952;4.678;2022-08-01T15:53:18;28.90;67.20
24035;DHT22;12242;50.952;4.678;2022-08-01T15:55:50;28.70;67.50
24035;DHT22;12242;50.952;4.678;2022-08-01T15:58:19;28.60;67.50
24035;DHT22;12242;50.952;4.678;2022-08-01T16:00:46;28.40;67.00
24035;DHT22;12242;50.952;4.678;2022-08-01T16:03:13;28.20;68.50
24035;DHT22;12242;50.952;4.678;2022-08-01T16:05:41;28.20;68.10
24035;DHT22;12242;50.952;4.678;2022-08-01T16:08:13;28.10;67.80
24035;DHT22;12242;50.952;4.678;2022-08-01T16:10:44;28.10;67.00
24035;DHT22;12242;50.952;4.678;2022-08-01T16:13:15;28.10;67.70
24035;DHT22;12242;50.952;4.678;2022-08-01T16:15:43;28.10;66.10
24035;DHT22;12242;50.952;4.678;2022-08-01T16:18:10;28.10;66.90
24035;DHT22;12242;50.952;4.678;2022-08-01T16:20:46;28.00;66.90
24035;DHT22;12242;50.952;4.678;2022-08-01T16:23:16;28.00;68.50
24035;DHT22;12242;50.952;4.678;2022-08-01T16:25:44;27.70;69.00
24035;DHT22;12242;50.952;4.678;2022-08-01T16:28:17;27.80;68.00
24035;DHT22;12242;50.952;4.678;2022-08-01T16:30:45;27.90;68.40